sensor_id;sensor_type;location;lat;lon;timestamp;P1;durP1;ratioP1;P2;durP2;ratioP2
21943;SDS011;11136;48.778;9.126;2023-06-10T00:01:52;7.47;;;5.22;;
21943;SDS011;11136;48.778;9.126;2023-06-10T00:04:20;7.13;;;4.75;;
21943;SDS011;11136;48.778;9.126;2023-06-10T00:06:46;8.63;;;5.80;;
21943;SDS011;11136;48.778;9.126;2023-06-10T00:09:13;6.75;;;5.30;;
21943;SDS011;11136;48.778;9.126;2023-06-10T00:11:39;6.03;;;5.18;;
21943;SDS011;11136;48.778;9.126;2023-06-10T00:14:06;6.57;;;5.03;;
21943;SDS011;11136;48.778;9.126;2023-06-10T00:16:32;5.75;;;5.18;;
21943;SDS011;11136;48.778;9.126;2023-06-10T00:19:01;5.63;;;5.13;;
21943;SDS011;11136;48.778;9.126;2023-06-10T00:21:29;7.90;;;5.20;;
21943;SDS011;11136;48.778;9.126;2023-06-10T00:24:05;6.07;;;5.22;;
21943;SDS011;11136;48.778;9.126;2023-06-10T00:26:35;6.78;;;5.28;;
21943;SDS011;11136;48.778;9.126;2023-06-10T00:29:01;5.63;;;4.68;;
21943;SDS011;11136;48.778;9.126;2023-06-10T00:31:27;6.32;;;5.15;;
21943;SDS011;11136;48.778;9.126;2023-06-10T00:33:53;6.70;;;5.55;;
21943;SDS011;11136;48.778;9.126;2023-06-10T00:36:19;9.57;;;5.53;;
21943;SDS011;11136;48.778;9.126;2023-06-10T00:38:44;6.90;;;5.30;;
21943;SDS011;11136;48.778;9.126;2023-06-10T00:41:10;5.53;;;5.03;;
21943;SDS011;11136;48.778;9.126;2023-06-10T00:43:35;7.50;;;5.40;;
21943;SDS011;11136;48.778;9.126;2023-06-10T00:46:01;6.85;;;4.93;;
21943;SDS011;11136;48.778;9.126;2023-06-10T00:48:27;6.35;;;5.40;;
21943;SDS011;11136;48.778;9.126;2023-06-10T00:50:53;9.23;;;5.70;;
21943;SDS011;11136;48.778;9.126;2023-06-10T00:53:19;6.93;;;4.55;;
21943;SDS011;11136;48.778;9.126;2023-06-10T00:55:47;7.80;;;5.18;;
21943;SDS011;11136;48.778;9.126;2023-06-10T00:58:13;7.97;;;5.68;;
21943;SDS011;11136;48.778;9.126;2023-06-10T01:00:39;9.43;;;5.18;;
21943;SDS011;11136;48.778;9.126;2023-06-10T01:03:04;10.55;;;5.00;;
21943;SDS011;11136;48.778;9.126;2023-06-10T01:05:36;8.90;;;5.32;;
21943;SDS011;11136;48.778;9.126;2023-06-10T01:11:04;5.07;;;4.55;;
21943;SDS011;11136;48.778;9.126;2023-06-10T01:13:36;6.65;;;5.05;;
21943;SDS011;11136;48.778;9.126;2023-06-10T01:16:06;5.47;;;4.80;;
21943;SDS011;11136;48.778;9.126;2023-06-10T01:18:32;7.22;;;5.40;;
21943;SDS011;11136;48.778;9.126;2023-06-10T01:20:58;6.10;;;5.07;;
21943;SDS011;11136;48.778;9.126;2023-06-10T01:23:24;7.50;;;5.22;;
21943;SDS011;11136;48.778;9.126;2023-06-10T01:25:57;6.57;;;5.05;;
21943;SDS011;11136;48.778;9.126;2023-06-10T01:31:13;5.40;;;4.90;;
21943;SDS011;11136;48.778;9.126;2023-06-10T01:33:52;6.90;;;5.43;;
21943;SDS011;11136;48.778;9.126;2023-06-10T01:36:19;6.22;;;5.60;;
21943;SDS011;11136;48.778;9.126;2023-06-10T01:38:48;5.43;;;4.70;;
21943;SDS011;11136;48.778;9.126;2023-06-10T01:41:18;6.47;;;5.22;;
21943;SDS011;11136;48.778;9.126;2023-06-10T01:43:46;7.47;;;5.55;;
21943;SDS011;11136;48.778;9.126;2023-06-10T01:46:13;8.05;;;5.60;;
21943;SDS011;11136;48.778;9.126;2023-06-10T01:48:41;8.43;;;5.43;;
21943;SDS011;11136;48.778;9.126;2023-06-10T01:51:07;6.03;;;5.43;;
21943;SDS011;11136;48.778;9.126;2023-06-10T01:53:32;7.00;;;5.05;;
21943;SDS011;11136;48.778;9.126;2023-06-10T01:55:58;8.10;;;5.65;;
21943;SDS011;11136;48.778;9.126;2023-06-10T01:58:24;7.72;;;5.78;;
21943;SDS011;11136;48.778;9.126;2023-06-10T02:00:50;5.95;;;5.35;;
21943;SDS011;11136;48.778;9.126;2023-06-10T02:03:16;6.50;;;4.93;;
21943;SDS011;11136;48.778;9.126;2023-06-10T02:05:41;8.77;;;5.88;;
21943;SDS011;11136;48.778;9.126;2023-06-10T02:08:07;6.45;;;5.47;;
21943;SDS011;11136;48.778;9.126;2023-06-10T02:10:32;7.15;;;4.93;;
21943;SDS011;11136;48.778;9.126;2023-06-10T02:12:58;5.85;;;5.13;;
21943;SDS011;11136;48.778;9.126;2023-06-10T02:15:24;6.20;;;5.05;;
21943;SDS011;11136;48.778;9.126;2023-06-10T02:17:51;6.68;;;5.15;;
21943;SDS011;11136;48.778;9.126;2023-06-10T02:20:17;6.10;;;5.25;;
21943;SDS011;11136;48.778;9.126;2023-06-10T02:22:43;7.90;;;5.55;;
21943;SDS011;11136;48.778;9.126;2023-06-10T02:25:08;6.22;;;5.60;;
21943;SDS011;11136;48.778;9.126;2023-06-10T02:27:34;7.53;;;5.35;;
21943;SDS011;11136;48.778;9.126;2023-06-10T02:29:59;7.72;;;5.63;;
21943;SDS011;11136;48.778;9.126;2023-06-10T02:32:25;7.15;;;5.47;;
21943;SDS011;11136;48.778;9.126;2023-06-10T02:34:51;5.15;;;4.47;;
21943;SDS011;11136;48.778;9.126;2023-06-10T02:37:17;5.60;;;4.90;;
21943;SDS011;11136;48.778;9.126;2023-06-10T02:39:43;6.20;;;4.97;;
21943;SDS011;11136;48.778;9.126;2023-06-10T02:42:08;6.88;;;5.38;;
21943;SDS011;11136;48.778;9.126;2023-06-10T02:44:34;6.28;;;4.88;;
21943;SDS011;11136;48.778;9.126;2023-06-10T02:46:59;6.72;;;5.10;;
21943;SDS011;11136;48.778;9.126;2023-06-10T02:49:25;6.63;;;4.88;;
21943;SDS011;11136;48.778;9.126;2023-06-10T02:51:53;6.43;;;5.05;;
21943;SDS011;11136;48.778;9.126;2023-06-10T02:54:19;7.85;;;5.57;;
21943;SDS011;11136;48.778;9.126;2023-06-10T02:56:45;6.78;;;5.00;;
21943;SDS011;11136;48.778;9.126;2023-06-10T02:59:12;6.85;;;4.75;;
21943;SDS011;11136;48.778;9.126;2023-06-10T03:01:38;6.07;;;5.10;;
21943;SDS011;11136;48.778;9.126;2023-06-10T03:04:04;6.30;;;4.95;;
21943;SDS011;11136;48.778;9.126;2023-06-10T03:06:30;6.82;;;5.43;;
21943;SDS011;11136;48.778;9.126;2023-06-10T03:08:59;5.57;;;5.07;;
21943;SDS011;11136;48.778;9.126;2023-06-10T03:11:25;6.40;;;5.15;;
21943;SDS011;11136;48.778;9.126;2023-06-10T03:13:50;6.47;;;4.97;;
21943;SDS011;11136;48.778;9.126;2023-06-10T03:16:17;5.72;;;4.68;;
21943;SDS011;11136;48.778;9.126;2023-06-10T03:18:43;6.07;;;5.03;;
21943;SDS011;11136;48.778;9.126;2023-06-10T03:21:09;10.65;;;5.13;;
21943;SDS011;11136;48.778;9.126;2023-06-10T03:23:34;5.60;;;4.70;;
21943;SDS011;11136;48.778;9.126;2023-06-10T03:26:00;8.77;;;4.55;;
21943;SDS011;11136;48.778;9.126;2023-06-10T03:28:25;5.45;;;4.80;;
21943;SDS011;11136;48.778;9.126;2023-06-10T03:30:51;7.65;;;4.97;;
21943;SDS011;11136;48.778;9.126;2023-06-10T03:33:17;5.45;;;4.60;;
21943;SDS011;11136;48.778;9.126;2023-06-10T03:35:42;5.88;;;4.93;;
21943;SDS011;11136;48.778;9.126;2023-06-10T03:38:08;5.35;;;4.43;;
21943;SDS011;11136;48.778;9.126;2023-06-10T03:40:33;5.10;;;4.60;;
21943;SDS011;11136;48.778;9.126;2023-06-10T03:43:00;6.53;;;4.97;;
21943;SDS011;11136;48.778;9.126;2023-06-10T03:45:25;5.10;;;4.60;;
21943;SDS011;11136;48.778;9.126;2023-06-10T03:47:53;5.03;;;4.53;;
21943;SDS011;11136;48.778;9.126;2023-06-10T03:50:19;7.90;;;4.93;;
21943;SDS011;11136;48.778;9.126;2023-06-10T03:52:44;6.40;;;4.93;;
21943;SDS011;11136;48.778;9.126;2023-06-10T03:55:12;6.03;;;4.72;;
21943;SDS011;11136;48.778;9.126;2023-06-10T03:57:38;8.80;;;4.30;;
21943;SDS011;11136;48.778;9.126;2023-06-10T04:00:04;5.70;;;4.70;;
21943;SDS011;11136;48.778;9.126;2023-06-10T04:02:35;5.40;;;4.80;;
21943;SDS011;11136;48.778;9.126;2023-06-10T04:05:01;5.55;;;4.97;;
21943;SDS011;11136;48.778;9.126;2023-06-10T04:07:27;6.55;;;4.43;;
21943;SDS011;11136;48.778;9.126;2023-06-10T04:09:53;8.07;;;4.47;;
21943;SDS011;11136;48.778;9.126;2023-06-10T04:12:19;6.07;;;5.00;;
21943;SDS011;11136;48.778;9.126;2023-06-10T04:14:44;4.68;;;4.20;;
21943;SDS011;11136;48.778;9.126;2023-06-10T04:17:10;5.75;;;4.80;;
21943;SDS011;11136;48.778;9.126;2023-06-10T04:19:36;5.15;;;4.47;;
21943;SDS011;11136;48.778;9.126;2023-06-10T04:22:02;5.90;;;5.03;;
21943;SDS011;11136;48.778;9.126;2023-06-10T04:24:28;6.18;;;4.57;;
21943;SDS011;11136;48.778;9.126;2023-06-10T04:26:54;5.10;;;4.60;;
21943;SDS011;11136;48.778;9.126;2023-06-10T04:29:19;6.20;;;4.78;;
21943;SDS011;11136;48.778;9.126;2023-06-10T04:31:45;5.00;;;4.50;;
21943;SDS011;11136;48.778;9.126;2023-06-10T04:34:11;5.72;;;4.65;;
21943;SDS011;11136;48.778;9.126;2023-06-10T04:36:37;4.75;;;4.35;;
21943;SDS011;11136;48.778;9.126;2023-06-10T04:39:03;6.38;;;5.00;;
21943;SDS011;11136;48.778;9.126;2023-06-10T04:41:30;4.55;;;4.10;;
21943;SDS011;11136;48.778;9.126;2023-06-10T04:43:56;4.88;;;4.43;;
21943;SDS011;11136;48.778;9.126;2023-06-10T04:46:22;9.65;;;4.97;;
21943;SDS011;11136;48.778;9.126;2023-06-10T04:48:49;5.45;;;4.63;;
21943;SDS011;11136;48.778;9.126;2023-06-10T04:51:14;6.80;;;4.82;;
21943;SDS011;11136;48.778;9.126;2023-06-10T04:53:40;6.78;;;4.95;;
21943;SDS011;11136;48.778;9.126;2023-06-10T04:56:06;7.03;;;5.00;;
21943;SDS011;11136;48.778;9.126;2023-06-10T04:58:33;7.05;;;4.85;;
21943;SDS011;11136;48.778;9.126;2023-06-10T05:00:58;7.10;;;4.82;;
21943;SDS011;11136;48.778;9.126;2023-06-10T05:03:24;5.55;;;4.85;;
21943;SDS011;11136;48.778;9.126;2023-06-10T05:05:51;6.40;;;5.55;;
21943;SDS011;11136;48.778;9.126;2023-06-10T05:08:17;6.30;;;5.13;;
21943;SDS011;11136;48.778;9.126;2023-06-10T05:10:43;5.22;;;4.72;;
21943;SDS011;11136;48.778;9.126;2023-06-10T05:13:09;6.18;;;4.72;;
21943;SDS011;11136;48.778;9.126;2023-06-10T05:15:34;5.78;;;5.00;;
21943;SDS011;11136;48.778;9.126;2023-06-10T05:18:00;6.22;;;4.93;;
21943;SDS011;11136;48.778;9.126;2023-06-10T05:20:27;8.48;;;5.72;;
21943;SDS011;11136;48.778;9.126;2023-06-10T05:22:53;5.85;;;5.25;;
21943;SDS011;11136;48.778;9.126;2023-06-10T05:25:19;7.80;;;5.28;;
21943;SDS011;11136;48.778;9.126;2023-06-10T05:27:44;7.53;;;4.85;;
21943;SDS011;11136;48.778;9.126;2023-06-10T05:30:10;7.15;;;5.20;;
21943;SDS011;11136;48.778;9.126;2023-06-10T05:32:36;6.43;;;5.47;;
21943;SDS011;11136;48.778;9.126;2023-06-10T05:35:02;7.70;;;5.40;;
21943;SDS011;11136;48.778;9.126;2023-06-10T05:37:29;5.72;;;5.13;;
21943;SDS011;11136;48.778;9.126;2023-06-10T05:39:55;9.45;;;4.72;;
21943;SDS011;11136;48.778;9.126;2023-06-10T05:42:20;5.75;;;4.55;;
21943;SDS011;11136;48.778;9.126;2023-06-10T05:44:46;7.20;;;4.72;;
21943;SDS011;11136;48.778;9.126;2023-06-10T05:47:11;6.38;;;4.70;;
21943;SDS011;11136;48.778;9.126;2023-06-10T05:49:37;5.85;;;5.20;;
21943;SDS011;11136;48.778;9.126;2023-06-10T05:52:03;9.75;;;5.05;;
21943;SDS011;11136;48.778;9.126;2023-06-10T05:54:29;5.65;;;5.05;;
21943;SDS011;11136;48.778;9.126;2023-06-10T05:56:55;6.38;;;4.93;;
21943;SDS011;11136;48.778;9.126;2023-06-10T05:59:21;5.78;;;5.05;;
21943;SDS011;11136;48.778;9.126;2023-06-10T06:01:49;6.43;;;4.82;;
21943;SDS011;11136;48.778;9.126;2023-06-10T06:04:15;6.57;;;4.45;;
21943;SDS011;11136;48.778;9.126;2023-06-10T06:06:41;6.47;;;5.28;;
21943;SDS011;11136;48.778;9.126;2023-06-10T06:09:07;5.35;;;4.22;;
21943;SDS011;11136;48.778;9.126;2023-06-10T06:11:33;5.10;;;4.47;;
21943;SDS011;11136;48.778;9.126;2023-06-10T06:14:00;6.55;;;4.95;;
21943;SDS011;11136;48.778;9.126;2023-06-10T06:16:25;5.88;;;4.80;;
21943;SDS011;11136;48.778;9.126;2023-06-10T06:18:51;5.03;;;4.55;;
21943;SDS011;11136;48.778;9.126;2023-06-10T06:21:17;9.10;;;5.05;;
21943;SDS011;11136;48.778;9.126;2023-06-10T06:23:42;6.68;;;4.45;;
21943;SDS011;11136;48.778;9.126;2023-06-10T06:26:08;5.85;;;4.55;;
21943;SDS011;11136;48.778;9.126;2023-06-10T06:28:33;6.65;;;4.78;;
21943;SDS011;11136;48.778;9.126;2023-06-10T06:30:59;6.88;;;4.82;;
21943;SDS011;11136;48.778;9.126;2023-06-10T06:33:24;5.60;;;4.68;;
21943;SDS011;11136;48.778;9.126;2023-06-10T06:35:51;8.88;;;4.78;;
21943;SDS011;11136;48.778;9.126;2023-06-10T06:38:17;5.63;;;4.80;;
21943;SDS011;11136;48.778;9.126;2023-06-10T06:40:43;7.50;;;4.45;;
21943;SDS011;11136;48.778;9.126;2023-06-10T06:43:08;7.85;;;4.90;;
21943;SDS011;11136;48.778;9.126;2023-06-10T06:45:34;5.00;;;4.07;;
21943;SDS011;11136;48.778;9.126;2023-06-10T06:47:59;8.30;;;4.32;;
21943;SDS011;11136;48.778;9.126;2023-06-10T06:50:25;6.45;;;4.40;;
21943;SDS011;11136;48.778;9.126;2023-06-10T06:52:51;4.70;;;4.25;;
21943;SDS011;11136;48.778;9.126;2023-06-10T06:55:16;11.38;;;5.25;;
21943;SDS011;11136;48.778;9.126;2023-06-10T06:57:42;4.93;;;4.43;;
21943;SDS011;11136;48.778;9.126;2023-06-10T07:00:08;6.38;;;4.82;;
21943;SDS011;11136;48.778;9.126;2023-06-10T07:02:34;5.95;;;4.50;;
21943;SDS011;11136;48.778;9.126;2023-06-10T07:05:00;5.20;;;4.70;;
21943;SDS011;11136;48.778;9.126;2023-06-10T07:07:26;6.38;;;4.47;;
21943;SDS011;11136;48.778;9.126;2023-06-10T07:09:52;6.10;;;4.80;;
21943;SDS011;11136;48.778;9.126;2023-06-10T07:12:17;6.72;;;4.70;;
21943;SDS011;11136;48.778;9.126;2023-06-10T07:14:43;7.25;;;4.35;;
21943;SDS011;11136;48.778;9.126;2023-06-10T07:17:09;5.90;;;4.82;;
21943;SDS011;11136;48.778;9.126;2023-06-10T07:19:35;5.63;;;4.60;;
21943;SDS011;11136;48.778;9.126;2023-06-10T07:22:00;4.88;;;4.38;;
21943;SDS011;11136;48.778;9.126;2023-06-10T07:24:26;6.68;;;4.63;;
21943;SDS011;11136;48.778;9.126;2023-06-10T07:26:51;5.53;;;4.55;;
21943;SDS011;11136;48.778;9.126;2023-06-10T07:29:17;7.65;;;4.80;;
21943;SDS011;11136;48.778;9.126;2023-06-10T07:31:42;6.63;;;4.80;;
21943;SDS011;11136;48.778;9.126;2023-06-10T07:34:08;4.97;;;4.40;;
21943;SDS011;11136;48.778;9.126;2023-06-10T07:36:33;6.25;;;4.65;;
21943;SDS011;11136;48.778;9.126;2023-06-10T07:38:59;5.93;;;4.30;;
21943;SDS011;11136;48.778;9.126;2023-06-10T07:41:25;6.95;;;4.80;;
21943;SDS011;11136;48.778;9.126;2023-06-10T07:43:51;5.03;;;4.53;;
21943;SDS011;11136;48.778;9.126;2023-06-10T07:46:20;9.35;;;4.82;;
21943;SDS011;11136;48.778;9.126;2023-06-10T07:48:46;5.97;;;4.70;;
21943;SDS011;11136;48.778;9.126;2023-06-10T07:51:12;6.45;;;4.97;;
21943;SDS011;11136;48.778;9.126;2023-06-10T07:53:38;7.82;;;4.90;;
21943;SDS011;11136;48.778;9.126;2023-06-10T07:56:03;6.75;;;4.88;;
21943;SDS011;11136;48.778;9.126;2023-06-10T07:58:29;10.95;;;4.53;;
21943;SDS011;11136;48.778;9.126;2023-06-10T08:00:54;6.10;;;5.13;;
21943;SDS011;11136;48.778;9.126;2023-06-10T08:03:20;7.35;;;4.38;;
21943;SDS011;11136;48.778;9.126;2023-06-10T08:05:45;6.65;;;4.97;;
21943;SDS011;11136;48.778;9.126;2023-06-10T08:08:11;6.40;;;5.20;;
21943;SDS011;11136;48.778;9.126;2023-06-10T08:10:37;5.97;;;5.38;;
21943;SDS011;11136;48.778;9.126;2023-06-10T08:13:03;7.40;;;5.10;;
21943;SDS011;11136;48.778;9.126;2023-06-10T08:15:29;7.00;;;4.80;;
21943;SDS011;11136;48.778;9.126;2023-06-10T08:17:54;7.03;;;4.30;;
21943;SDS011;11136;48.778;9.126;2023-06-10T08:20:21;7.57;;;5.68;;
21943;SDS011;11136;48.778;9.126;2023-06-10T08:22:47;5.18;;;4.40;;
21943;SDS011;11136;48.778;9.126;2023-06-10T08:25:12;6.50;;;5.10;;
21943;SDS011;11136;48.778;9.126;2023-06-10T08:27:38;5.72;;;5.10;;
21943;SDS011;11136;48.778;9.126;2023-06-10T08:30:04;6.65;;;4.45;;
21943;SDS011;11136;48.778;9.126;2023-06-10T08:32:30;5.25;;;4.75;;
21943;SDS011;11136;48.778;9.126;2023-06-10T08:34:55;5.60;;;4.70;;
21943;SDS011;11136;48.778;9.126;2023-06-10T08:37:21;7.20;;;4.97;;
21943;SDS011;11136;48.778;9.126;2023-06-10T08:39:47;60.92;;;12.70;;
21943;SDS011;11136;48.778;9.126;2023-06-10T08:42:17;36.75;;;8.82;;
21943;SDS011;11136;48.778;9.126;2023-06-10T08:44:49;6.88;;;4.75;;
21943;SDS011;11136;48.778;9.126;2023-06-10T08:47:20;42.40;;;8.65;;
21943;SDS011;11136;48.778;9.126;2023-06-10T08:49:49;9.18;;;4.55;;
21943;SDS011;11136;48.778;9.126;2023-06-10T08:52:17;5.40;;;4.43;;
21943;SDS011;11136;48.778;9.126;2023-06-10T08:54:49;7.25;;;4.05;;
21943;SDS011;11136;48.778;9.126;2023-06-10T08:57:21;8.20;;;4.90;;
21943;SDS011;11136;48.778;9.126;2023-06-10T08:59:48;10.45;;;4.50;;
21943;SDS011;11136;48.778;9.126;2023-06-10T09:02:14;4.63;;;4.22;;
21943;SDS011;11136;48.778;9.126;2023-06-10T09:04:42;7.00;;;3.90;;
21943;SDS011;11136;48.778;9.126;2023-06-10T09:07:08;5.88;;;4.40;;
21943;SDS011;11136;48.778;9.126;2023-06-10T09:09:35;33.17;;;8.00;;
21943;SDS011;11136;48.778;9.126;2023-06-10T09:12:01;29.10;;;8.80;;
21943;SDS011;11136;48.778;9.126;2023-06-10T09:14:27;33.92;;;7.38;;
21943;SDS011;11136;48.778;9.126;2023-06-10T09:16:52;12.65;;;5.90;;
21943;SDS011;11136;48.778;9.126;2023-06-10T09:19:21;5.13;;;4.07;;
21943;SDS011;11136;48.778;9.126;2023-06-10T09:21:49;6.25;;;4.03;;
21943;SDS011;11136;48.778;9.126;2023-06-10T09:24:15;4.05;;;3.75;;
21943;SDS011;11136;48.778;9.126;2023-06-10T09:26:41;4.70;;;3.75;;
21943;SDS011;11136;48.778;9.126;2023-06-10T09:29:07;6.25;;;4.40;;
21943;SDS011;11136;48.778;9.126;2023-06-10T09:31:35;4.78;;;3.97;;
21943;SDS011;11136;48.778;9.126;2023-06-10T09:34:08;5.82;;;4.57;;
21943;SDS011;11136;48.778;9.126;2023-06-10T09:36:35;4.97;;;3.92;;
21943;SDS011;11136;48.778;9.126;2023-06-10T09:39:01;5.13;;;4.05;;
21943;SDS011;11136;48.778;9.126;2023-06-10T09:41:34;5.43;;;4.53;;
21943;SDS011;11136;48.778;9.126;2023-06-10T09:44:00;5.05;;;3.95;;
21943;SDS011;11136;48.778;9.126;2023-06-10T09:46:30;6.75;;;4.18;;
21943;SDS011;11136;48.778;9.126;2023-06-10T09:48:59;7.47;;;4.03;;
21943;SDS011;11136;48.778;9.126;2023-06-10T09:51:25;5.93;;;4.43;;
21943;SDS011;11136;48.778;9.126;2023-06-10T09:53:51;4.85;;;3.85;;
21943;SDS011;11136;48.778;9.126;2023-06-10T09:56:17;4.72;;;4.22;;
21943;SDS011;11136;48.778;9.126;2023-06-10T09:58:44;5.95;;;4.10;;
21943;SDS011;11136;48.778;9.126;2023-06-10T10:01:11;4.40;;;4.00;;
21943;SDS011;11136;48.778;9.126;2023-06-10T10:03:45;5.88;;;4.10;;
21943;SDS011;11136;48.778;9.126;2023-06-10T10:06:12;5.35;;;4.13;;
21943;SDS011;11136;48.778;9.126;2023-06-10T10:08:38;4.93;;;3.60;;
21943;SDS011;11136;48.778;9.126;2023-06-10T10:11:04;4.63;;;4.15;;
21943;SDS011;11136;48.778;9.126;2023-06-10T10:13:30;4.60;;;3.90;;
21943;SDS011;11136;48.778;9.126;2023-06-10T10:15:59;4.97;;;3.63;;
21943;SDS011;11136;48.778;9.126;2023-06-10T10:18:31;6.60;;;4.18;;
21943;SDS011;11136;48.778;9.126;2023-06-10T10:21:00;4.95;;;4.35;;
21943;SDS011;11136;48.778;9.126;2023-06-10T10:23:40;5.32;;;4.68;;
21943;SDS011;11136;48.778;9.126;2023-06-10T10:26:18;4.47;;;3.85;;
21943;SDS011;11136;48.778;9.126;2023-06-10T10:28:50;7.95;;;4.28;;
21943;SDS011;11136;48.778;9.126;2023-06-10T10:31:24;4.53;;;3.80;;
21943;SDS011;11136;48.778;9.126;2023-06-10T10:33:55;5.90;;;3.50;;
21943;SDS011;11136;48.778;9.126;2023-06-10T10:36:24;4.85;;;3.83;;
21943;SDS011;11136;48.778;9.126;2023-06-10T10:38:50;4.38;;;3.78;;
21943;SDS011;11136;48.778;9.126;2023-06-10T10:41:16;4.45;;;4.05;;
21943;SDS011;11136;48.778;9.126;2023-06-10T10:43:43;5.97;;;3.95;;
21943;SDS011;11136;48.778;9.126;2023-06-10T10:46:13;6.18;;;4.28;;
21943;SDS011;11136;48.778;9.126;2023-06-10T10:48:41;5.15;;;3.85;;
21943;SDS011;11136;48.778;9.126;2023-06-10T10:51:08;8.00;;;4.45;;
21943;SDS011;11136;48.778;9.126;2023-06-10T10:53:34;5.63;;;4.53;;
21943;SDS011;11136;48.778;9.126;2023-06-10T10:56:05;6.68;;;4.60;;
21943;SDS011;11136;48.778;9.126;2023-06-10T10:58:37;5.05;;;4.55;;
21943;SDS011;11136;48.778;9.126;2023-06-10T11:01:10;6.22;;;4.75;;
21943;SDS011;11136;48.778;9.126;2023-06-10T11:03:43;5.10;;;4.28;;
21943;SDS011;11136;48.778;9.126;2023-06-10T11:06:13;6.10;;;4.35;;
21943;SDS011;11136;48.778;9.126;2023-06-10T11:11:25;4.40;;;3.95;;
21943;SDS011;11136;48.778;9.126;2023-06-10T11:14:26;8.63;;;4.53;;
21943;SDS011;11136;48.778;9.126;2023-06-10T11:16:56;5.40;;;4.18;;
21943;SDS011;11136;48.778;9.126;2023-06-10T11:19:32;5.40;;;4.05;;
21943;SDS011;11136;48.778;9.126;2023-06-10T11:22:05;5.30;;;3.78;;
21943;SDS011;11136;48.778;9.126;2023-06-10T11:24:32;5.22;;;4.45;;
21943;SDS011;11136;48.778;9.126;2023-06-10T11:29:55;5.88;;;4.00;;
21943;SDS011;11136;48.778;9.126;2023-06-10T11:32:21;5.55;;;4.22;;
21943;SDS011;11136;48.778;9.126;2023-06-10T11:34:54;4.15;;;3.65;;
21943;SDS011;11136;48.778;9.126;2023-06-10T11:37:20;5.20;;;4.28;;
21943;SDS011;11136;48.778;9.126;2023-06-10T11:39:46;7.07;;;4.25;;
21943;SDS011;11136;48.778;9.126;2023-06-10T11:42:12;5.43;;;4.40;;
21943;SDS011;11136;48.778;9.126;2023-06-10T11:44:38;5.28;;;4.07;;
21943;SDS011;11136;48.778;9.126;2023-06-10T11:47:03;4.65;;;4.10;;
21943;SDS011;11136;48.778;9.126;2023-06-10T11:49:29;4.72;;;4.05;;
21943;SDS011;11136;48.778;9.126;2023-06-10T11:51:55;4.35;;;3.95;;
21943;SDS011;11136;48.778;9.126;2023-06-10T11:54:21;6.63;;;4.10;;
21943;SDS011;11136;48.778;9.126;2023-06-10T11:56:47;4.00;;;3.60;;
21943;SDS011;11136;48.778;9.126;2023-06-10T11:59:13;6.13;;;3.90;;
21943;SDS011;11136;48.778;9.126;2023-06-10T12:01:43;3.75;;;3.40;;
21943;SDS011;11136;48.778;9.126;2023-06-10T12:04:11;4.65;;;3.90;;
21943;SDS011;11136;48.778;9.126;2023-06-10T12:06:44;8.57;;;3.90;;
21943;SDS011;11136;48.778;9.126;2023-06-10T12:09:14;4.75;;;3.63;;
21943;SDS011;11136;48.778;9.126;2023-06-10T12:11:42;4.70;;;3.38;;
21943;SDS011;11136;48.778;9.126;2023-06-10T12:14:08;4.45;;;3.63;;
21943;SDS011;11136;48.778;9.126;2023-06-10T12:16:34;4.50;;;3.67;;
21943;SDS011;11136;48.778;9.126;2023-06-10T12:19:03;5.25;;;3.97;;
21943;SDS011;11136;48.778;9.126;2023-06-10T12:21:31;4.07;;;3.67;;
21943;SDS011;11136;48.778;9.126;2023-06-10T12:24:01;4.45;;;3.85;;
21943;SDS011;11136;48.778;9.126;2023-06-10T12:26:34;4.63;;;3.40;;
21943;SDS011;11136;48.778;9.126;2023-06-10T12:29:01;4.07;;;3.50;;
21943;SDS011;11136;48.778;9.126;2023-06-10T12:31:55;5.60;;;3.67;;
21943;SDS011;11136;48.778;9.126;2023-06-10T12:34:35;3.50;;;3.20;;
21943;SDS011;11136;48.778;9.126;2023-06-10T12:37:03;5.07;;;4.30;;
21943;SDS011;11136;48.778;9.126;2023-06-10T12:39:38;4.50;;;4.03;;
21943;SDS011;11136;48.778;9.126;2023-06-10T12:42:06;4.13;;;3.38;;
21943;SDS011;11136;48.778;9.126;2023-06-10T12:44:35;4.00;;;3.45;;
21943;SDS011;11136;48.778;9.126;2023-06-10T12:47:07;3.73;;;3.40;;
21943;SDS011;11136;48.778;9.126;2023-06-10T12:52:00;6.03;;;3.47;;
21943;SDS011;11136;48.778;9.126;2023-06-10T12:54:26;4.63;;;3.42;;
21943;SDS011;11136;48.778;9.126;2023-06-10T12:56:52;4.25;;;3.47;;
21943;SDS011;11136;48.778;9.126;2023-06-10T12:59:18;5.55;;;4.05;;
21943;SDS011;11136;48.778;9.126;2023-06-10T13:01:44;4.15;;;3.50;;
21943;SDS011;11136;48.778;9.126;2023-06-10T13:04:15;7.20;;;3.63;;
21943;SDS011;11136;48.778;9.126;2023-06-10T13:06:41;4.43;;;3.42;;
21943;SDS011;11136;48.778;9.126;2023-06-10T13:09:07;7.70;;;3.45;;
21943;SDS011;11136;48.778;9.126;2023-06-10T13:11:32;3.42;;;3.00;;
21943;SDS011;11136;48.778;9.126;2023-06-10T13:13:58;4.82;;;3.70;;
21943;SDS011;11136;48.778;9.126;2023-06-10T13:16:24;3.97;;;3.50;;
21943;SDS011;11136;48.778;9.126;2023-06-10T13:18:50;4.45;;;3.28;;
21943;SDS011;11136;48.778;9.126;2023-06-10T13:21:17;4.50;;;3.42;;
21943;SDS011;11136;48.778;9.126;2023-06-10T13:23:44;3.85;;;3.30;;
21943;SDS011;11136;48.778;9.126;2023-06-10T13:26:11;5.68;;;3.13;;
21943;SDS011;11136;48.778;9.126;2023-06-10T13:28:36;4.22;;;3.83;;
21943;SDS011;11136;48.778;9.126;2023-06-10T13:31:03;3.70;;;3.40;;
21943;SDS011;11136;48.778;9.126;2023-06-10T13:33:28;3.60;;;3.08;;
21943;SDS011;11136;48.778;9.126;2023-06-10T13:35:54;3.67;;;3.38;;
21943;SDS011;11136;48.778;9.126;2023-06-10T13:38:20;5.10;;;3.72;;
21943;SDS011;11136;48.778;9.126;2023-06-10T13:40:45;4.50;;;3.25;;
21943;SDS011;11136;48.778;9.126;2023-06-10T13:43:11;3.60;;;3.03;;
21943;SDS011;11136;48.778;9.126;2023-06-10T13:45:38;3.50;;;3.17;;
21943;SDS011;11136;48.778;9.126;2023-06-10T13:48:04;2.70;;;2.45;;
21943;SDS011;11136;48.778;9.126;2023-06-10T13:50:30;4.50;;;3.13;;
21943;SDS011;11136;48.778;9.126;2023-06-10T13:52:56;3.28;;;2.95;;
21943;SDS011;11136;48.778;9.126;2023-06-10T13:55:22;3.35;;;3.05;;
21943;SDS011;11136;48.778;9.126;2023-06-10T13:57:49;4.07;;;2.97;;
21943;SDS011;11136;48.778;9.126;2023-06-10T14:00:15;4.05;;;3.65;;
21943;SDS011;11136;48.778;9.126;2023-06-10T14:02:41;4.30;;;3.22;;
21943;SDS011;11136;48.778;9.126;2023-06-10T14:05:07;3.72;;;2.97;;
21943;SDS011;11136;48.778;9.126;2023-06-10T14:07:33;3.50;;;3.20;;
21943;SDS011;11136;48.778;9.126;2023-06-10T14:09:59;4.00;;;3.35;;
21943;SDS011;11136;48.778;9.126;2023-06-10T14:12:25;3.70;;;3.05;;
21943;SDS011;11136;48.778;9.126;2023-06-10T14:14:50;3.88;;;3.42;;
21943;SDS011;11136;48.778;9.126;2023-06-10T14:17:16;3.30;;;3.00;;
21943;SDS011;11136;48.778;9.126;2023-06-10T14:19:41;4.00;;;3.67;;
21943;SDS011;11136;48.778;9.126;2023-06-10T14:22:07;4.13;;;3.20;;
21943;SDS011;11136;48.778;9.126;2023-06-10T14:24:33;3.67;;;2.92;;
21943;SDS011;11136;48.778;9.126;2023-06-10T14:27:00;3.25;;;2.95;;
21943;SDS011;11136;48.778;9.126;2023-06-10T14:29:25;3.10;;;2.80;;
21943;SDS011;11136;48.778;9.126;2023-06-10T14:31:53;2.92;;;2.60;;
21943;SDS011;11136;48.778;9.126;2023-06-10T14:34:19;3.72;;;3.30;;
21943;SDS011;11136;48.778;9.126;2023-06-10T14:36:45;3.45;;;2.83;;
21943;SDS011;11136;48.778;9.126;2023-06-10T14:39:11;3.50;;;3.20;;
21943;SDS011;11136;48.778;9.126;2023-06-10T14:41:36;4.93;;;3.22;;
21943;SDS011;11136;48.778;9.126;2023-06-10T14:44:02;3.78;;;3.38;;
21943;SDS011;11136;48.778;9.126;2023-06-10T14:46:28;3.92;;;2.92;;
21943;SDS011;11136;48.778;9.126;2023-06-10T14:48:53;6.65;;;2.90;;
21943;SDS011;11136;48.778;9.126;2023-06-10T14:51:19;5.50;;;3.38;;
21943;SDS011;11136;48.778;9.126;2023-06-10T14:53:45;3.50;;;3.20;;
21943;SDS011;11136;48.778;9.126;2023-06-10T14:56:11;9.60;;;3.58;;
21943;SDS011;11136;48.778;9.126;2023-06-10T14:58:38;5.00;;;3.40;;
21943;SDS011;11136;48.778;9.126;2023-06-10T15:01:04;9.45;;;4.03;;